• Join FlightAware (Why Join?)
  • Login
  • US Flag 
12:35PM EST


 

Airport Tracker/Info


-or-


 

Live Flight TrackerFlight Track Log ✈ N81321 ✈ 28-Apr-2014 ✈ KSBY - KFRG

Flight Track Log - Related Links

Times and Time Zones

All times are in EDT time to prevent confusion due to time zone crossing. See the N81321 flight status page for this flight to view local times or setup timezone preferences in your user account.

Time Position Orientation Groundspeed Altitude Reporting Facility
EDT Latitude Longitude Course Direction KTS MPH feet Rate Location/Type
11:14AM 38.3794 -75.4831 27° Northeast 71 82 2,000  Level Washington Center
11:15AM 38.4003 -75.4697 27° Northeast 75 86 2,600 600 Climbing Washington Center
11:16AM 38.4192 -75.4567 28° Northeast 84 97 3,200 600 Climbing Washington Center
11:17AM 38.4400 -75.4486 17° North 80 92 3,800 540 Climbing Washington Center
11:18AM 38.4608 -75.4353 27° Northeast 78 90 4,400 540 Climbing Washington Center
11:19AM 38.4836 -75.4167 33° Northeast 83 96 5,100 480 Climbing Washington Center
11:20AM 38.5067 -75.4033 24° Northeast 84 97 5,500 -60 Climbing Washington Center
11:22AM 38.5395 -75.3719 21° North  Level FlightAware Approximate
11:29AM 38.7017 -75.2682 28° Northeast  Level FlightAware Approximate
11:30AM 38.7248 -75.2522 28° Northeast  Level FlightAware Approximate
11:31AM 38.7478 -75.2362 28° Northeast  Level FlightAware Approximate
11:32AM 38.7709 -75.2202 28° Northeast  Level FlightAware Approximate
11:33AM 38.7940 -75.2042 28° Northeast  Level FlightAware Approximate
11:34AM 38.8179 -75.1904 23° Northeast  Level FlightAware Approximate
11:35AM 38.8421 -75.1774 23° Northeast  Level FlightAware Approximate
11:36AM 38.8663 -75.1644 23° Northeast  Level FlightAware Approximate
11:37AM 38.8905 -75.1514 23° Northeast  Level FlightAware Approximate
11:38AM 38.9147 -75.1384 23° Northeast  Level FlightAware Approximate
11:39AM 38.9389 -75.1253 23° Northeast  Level FlightAware Approximate
11:40AM 38.9630 -75.1123 23° Northeast  Level FlightAware Approximate
11:41AM 38.9872 -75.0992 23° Northeast  Level FlightAware Approximate
11:42AM 39.0114 -75.0862 23° Northeast  Level FlightAware Approximate
11:43AM 39.0329 -75.0671 38° Northeast  Level FlightAware Approximate
11:44AM 39.0570 -75.0540 23° Northeast  Level FlightAware Approximate
11:45AM 39.0812 -75.0409 23° Northeast  Level FlightAware Approximate
11:46AM 39.1054 -75.0279 23° Northeast  Level FlightAware Approximate
11:47AM 39.1296 -75.0149 23° Northeast  Level FlightAware Approximate
11:48AM 39.1538 -75.0019 23° Northeast  Level FlightAware Approximate
11:49AM 39.1780 -74.9888 23° Northeast  Level FlightAware Approximate
11:50AM 39.2022 -74.9758 23° Northeast  Level FlightAware Approximate
11:51AM 39.2264 -74.9627 23° Northeast  Level FlightAware Approximate
11:52AM 39.2505 -74.9495 36° Northeast  Level FlightAware Approximate
11:53AM 39.2718 -74.9297 36° Northeast  Level FlightAware Approximate
11:54AM 39.2931 -74.9099 36° Northeast  Level FlightAware Approximate
11:55AM 39.3144 -74.8901 36° Northeast  Level FlightAware Approximate
11:56AM 39.3357 -74.8703 36° Northeast  Level FlightAware Approximate
11:57AM 39.3570 -74.8504 36° Northeast  Level FlightAware Approximate
11:58AM 39.3782 -74.8306 36° Northeast  Level FlightAware Approximate
11:59AM 39.3995 -74.8107 36° Northeast  Level FlightAware Approximate
12:00PM 39.4208 -74.7908 36° Northeast  Level FlightAware Approximate
12:01PM 39.4420 -74.7710 36° Northeast  Level FlightAware Approximate
12:02PM 39.4633 -74.7511 36° Northeast  Level FlightAware Approximate
12:03PM 39.4845 -74.7312 36° Northeast  Level FlightAware Approximate
12:04PM 39.5057 -74.7110 38° Northeast  Level FlightAware Approximate
12:05PM 39.5264 -74.6903 38° Northeast  Level FlightAware Approximate
12:06PM 39.5472 -74.6695 38° Northeast  Level FlightAware Approximate
12:07PM 39.5680 -74.6487 38° Northeast  Level FlightAware Approximate
12:08PM 39.5887 -74.6279 38° Northeast  Level FlightAware Approximate
12:09PM 39.6095 -74.6072 38° Northeast  Level FlightAware Approximate
12:10PM 39.6303 -74.5864 38° Northeast  Level FlightAware Approximate
12:11PM 39.6511 -74.5656 38° Northeast  Level FlightAware Approximate
12:12PM 39.6721 -74.5452 34° Northeast  Level FlightAware Approximate
12:13PM 39.6937 -74.5260 34° Northeast  Level FlightAware Approximate
12:14PM 39.7154 -74.5068 34° Northeast  Level FlightAware Approximate
12:15PM 39.7371 -74.4875 34° Northeast  Level FlightAware Approximate
12:16PM 39.7587 -74.4683 34° Northeast  Level FlightAware Approximate
12:17PM 39.7804 -74.4490 34° Northeast  Level FlightAware Approximate
12:18PM 39.8020 -74.4297 34° Northeast  Level FlightAware Approximate
12:19PM 39.8236 -74.4104 35° Northeast  Level FlightAware Approximate
12:20PM 39.8451 -74.3909 35° Northeast  Level FlightAware Approximate
12:21PM 39.8667 -74.3713 35° Northeast  Level FlightAware Approximate
12:21PM 40.0667 -74.1833 35° Northeast 117 135 5,000  Level New York TRACON
12:22PM 39.8882 -74.3518 35° Northeast  Level FlightAware Approximate
12:22PM 40.1000 -74.1667 21° North 128 147 4,800  Level New York TRACON
12:23PM 39.9097 -74.3322 35° Northeast  Level FlightAware Approximate
12:23PM 40.1333 -74.1500 21° North 110 127 5,000  Level New York TRACON
12:24PM 39.9312 -74.3127 35° Northeast  Level FlightAware Approximate
12:24PM 40.1500 -74.1167 57° Northeast 111 128 4,900  Level New York TRACON
12:25PM 39.9527 -74.2931 35° Northeast  Level FlightAware Approximate
12:25PM 40.1833 -74.1000 21° North 115 132 5,000  Level New York TRACON
12:26PM 39.9742 -74.2735 35° Northeast  Level FlightAware Approximate
12:26PM 40.2000 -74.0833 37° Northeast 111 128 5,000  Level New York TRACON
12:27PM 40.2333 -74.0667 21° North 110 127 5,000 -60 Level New York TRACON
12:28PM 40.2667 -74.0500 21° North 109 125 4,900 -60 Descending New York TRACON
12:29PM 40.2833 -74.0333 37° Northeast 105 121 4,900  Level New York TRACON
12:30PM 40.3167 -74.0167 21° North 103 119 5,000  Climbing New York TRACON
12:31PM 40.3500 -74.0000 21° North 108 124 5,000  Level New York TRACON
12:32PM 40.3667 -74.0000 360° North 104 120 5,000  Level New York TRACON
12:33PM 40.4000 -73.9833 21° North 106 122 5,000  Level New York TRACON
12:34PM 40.4333 -73.9667 21° North 101 116 5,000  Level New York TRACON
12:35PM 40.4500 -73.9500 37° Northeast 107 123 5,000  Level New York TRACON
12:36PM 40.4833 -73.9333 21° North 110 127 5,000  Level New York TRACON
12:37PM 40.5000 -73.9000 57° Northeast 102 117 5,000 -240 Level New York TRACON
12:38PM 40.5333 -73.8833 21° North 114 131 4,600 -540 Descending New York TRACON
12:39PM 40.5500 -73.8500 57° Northeast 125 144 4,000 -300 Descending New York TRACON
12:40PM 40.5500 -73.8167 90° East 119 137 4,000 -180 Level New York TRACON
12:41PM 40.5667 -73.7667 66° East 119 137 3,700 -420 Descending New York TRACON
12:42PM 40.5667 -73.7333 90° East 118 136 3,200 -420 Descending New York TRACON
12:43PM 40.5833 -73.6833 66° East 114 131 2,900 -120 Descending New York TRACON
12:44PM 40.5833 -73.6500 90° East 112 129 3,000 -60 Climbing New York TRACON
12:45PM 40.6000 -73.6000 66° East 115 132 2,800 -360 Descending New York TRACON
12:46PM 40.6167 -73.5667 57° Northeast 112 129 2,300 -360 Descending New York TRACON
12:47PM 40.6333 -73.5333 57° Northeast 109 125 2,100 -300 Descending New York TRACON
12:48PM 40.6500 -73.5000 57° Northeast 103 119 1,800 -180 Descending New York TRACON
12:49PM 40.6667 -73.4667 57° Northeast 101 116 1,800 -180 Level New York TRACON
12:50PM 40.6667 -73.4333 90° East 108 124 1,500 -360 Descending New York TRACON
12:51PM 40.6833 -73.4000 57° Northeast 101 116 1,100 -300 Descending New York TRACON
12:52PM 40.6833 -73.3667 90° East 81 93 1,000 -180 Descending New York TRACON
12:53PM 40.7000 -73.3833 323° Northwest 81 93 800 -240 Descending New York TRACON
12:55PM 40.7167 -73.4000 323° Northwest  Level FlightAware Approximate
01:02PM 40.7288 -73.4134 323° Northwest  Level Estimated
01:03PM 40.7288 -73.4134 323° Northwest  Level Estimated